createdAt,value
2019-02-14T00:05:58.146Z,-1.10
2019-02-14T00:15:58.149Z,-1.15
2019-02-14T00:25:58.123Z,-1.60
2019-02-14T00:35:58.108Z,-1.61
2019-02-14T00:45:58.145Z,-1.31
2019-02-14T00:55:57.984Z,-1.35
2019-02-14T01:05:58.159Z,-1.48
2019-02-14T01:15:58.073Z,-1.26
2019-02-14T01:25:58.107Z,-1.36
2019-02-14T01:35:58.065Z,-1.40
2019-02-14T01:45:58.143Z,-1.19
2019-02-14T01:55:58.139Z,-1.39
2019-02-14T02:05:58.076Z,-1.40
2019-02-14T02:15:58.142Z,-1.53
2019-02-14T02:25:59.505Z,-1.53
2019-02-14T02:36:00.415Z,-1.33
2019-02-14T02:56:04.195Z,-1.70
2019-02-14T03:06:10.199Z,-1.78
2019-02-14T03:16:03.438Z,-1.89
2019-02-14T03:26:03.534Z,-2.05
2019-02-14T03:36:07.322Z,-2.13
2019-02-14T03:46:03.633Z,-2.36
2019-02-14T03:56:03.658Z,-2.15
2019-02-14T04:06:03.369Z,-2.15
2019-02-14T04:16:04.519Z,-2.32
2019-02-14T04:26:03.493Z,-2.39
2019-02-14T04:36:03.397Z,-2.22
2019-02-14T04:46:03.482Z,-2.34
2019-02-14T04:56:03.450Z,-2.30
2019-02-14T05:06:03.404Z,-2.41
2019-02-14T05:16:03.370Z,-2.45
2019-02-14T05:26:03.389Z,-2.42
2019-02-14T05:36:03.508Z,-2.62
2019-02-14T05:46:03.405Z,-2.53
2019-02-14T05:56:03.357Z,-2.58
2019-02-14T06:06:03.490Z,-2.51
2019-02-14T06:16:06.470Z,-2.42
2019-02-14T06:26:03.430Z,-2.48
2019-02-14T06:36:04.143Z,-2.63
2019-02-14T06:46:03.532Z,-2.60
2019-02-14T06:56:03.536Z,-2.48
2019-02-14T07:06:03.487Z,-2.39
2019-02-14T07:16:03.544Z,-1.75
2019-02-14T07:26:03.506Z,-0.91
2019-02-14T07:36:03.589Z,0.14
2019-02-14T07:46:03.537Z,1.25
2019-02-14T07:56:03.578Z,3.47
2019-02-14T08:06:03.453Z,4.93
2019-02-14T08:16:03.426Z,4.44
2019-02-14T08:26:10.649Z,5.16
2019-02-14T08:36:04.534Z,6.44
2019-02-14T08:46:03.392Z,6.12
2019-02-14T08:56:03.544Z,6.96
2019-02-14T09:06:03.654Z,8.10
2019-02-14T09:16:03.636Z,10.11
2019-02-14T09:26:03.377Z,10.92
2019-02-14T09:36:03.522Z,11.24
2019-02-14T09:46:03.604Z,12.19
2019-02-14T09:56:03.462Z,12.19
2019-02-14T10:06:03.772Z,13.86
2019-02-14T10:16:03.898Z,13.49
2019-02-14T10:26:04.016Z,14.10
2019-02-14T10:36:04.466Z,15.48
2019-02-14T10:46:03.604Z,16.13
2019-02-14T10:56:03.641Z,18.17
2019-02-14T11:06:03.493Z,17.77
2019-02-14T11:16:03.496Z,18.53
2019-02-14T11:26:03.402Z,19.14
2019-02-14T11:36:03.580Z,19.24
2019-02-14T11:46:03.445Z,19.31
2019-02-14T11:56:03.540Z,18.41
2019-02-14T12:06:03.594Z,20.24
2019-02-14T12:16:04.301Z,19.99
2019-02-14T12:26:05.509Z,21.61
2019-02-14T12:36:03.454Z,20.83
2019-02-14T12:46:04.403Z,20.69
2019-02-14T12:56:03.536Z,21.61
2019-02-14T13:06:03.475Z,22.24
2019-02-14T13:16:03.488Z,22.60
2019-02-14T13:26:03.537Z,21.34
2019-02-14T13:36:03.549Z,21.87
2019-02-14T13:46:03.473Z,22.92
2019-02-14T13:56:03.693Z,21.06
2019-02-14T14:06:03.671Z,21.41
2019-02-14T14:16:03.626Z,21.58
2019-02-14T14:26:03.891Z,21.26
2019-02-14T14:36:03.550Z,21.58
2019-02-14T14:46:03.576Z,20.19
2019-02-14T14:56:03.668Z,19.79
2019-02-14T15:06:03.547Z,17.67
2019-02-14T15:16:03.599Z,17.03
2019-02-14T15:26:03.656Z,17.38
2019-02-14T15:36:03.677Z,17.37
2019-02-14T15:46:03.711Z,16.59
2019-02-14T15:56:05.515Z,15.61
2019-02-14T16:26:30.571Z,14.53
2019-02-14T16:36:32.394Z,12.64
2019-02-14T16:46:31.181Z,11.38
2019-02-14T16:56:31.210Z,10.43
2019-02-14T17:06:30.239Z,9.52
2019-02-14T17:16:31.286Z,8.87
2019-02-14T17:26:30.238Z,8.36
2019-02-14T17:36:30.269Z,7.78
2019-02-14T17:46:30.399Z,7.43
2019-02-14T17:56:30.247Z,6.99
2019-02-14T18:06:30.314Z,6.38
2019-02-14T18:16:30.262Z,6.01
2019-02-14T18:26:30.418Z,5.74
2019-02-14T18:36:30.198Z,5.56
2019-02-14T18:46:30.171Z,5.04
2019-02-14T18:56:30.338Z,5.19
2019-02-14T19:06:30.546Z,5.07
2019-02-14T19:16:30.289Z,4.50
2019-02-14T19:26:30.467Z,4.12
2019-02-14T19:36:30.299Z,3.97
2019-02-14T19:46:30.442Z,3.63
2019-02-14T19:56:30.396Z,3.40
2019-02-14T20:06:30.300Z,3.33
2019-02-14T20:16:30.313Z,3.09
2019-02-14T20:26:30.295Z,2.81
2019-02-14T20:36:31.089Z,2.93
2019-02-14T20:46:30.250Z,2.58
2019-02-14T20:56:30.306Z,2.43
2019-02-14T21:06:31.331Z,2.59
2019-02-14T21:16:30.295Z,2.26
2019-02-14T21:26:30.186Z,2.47
2019-02-14T21:36:30.278Z,2.30
2019-02-14T21:46:30.225Z,2.04
2019-02-14T21:56:30.187Z,1.76
2019-02-14T22:06:30.212Z,1.82
2019-02-14T22:16:30.455Z,1.64
2019-02-14T22:26:30.504Z,1.37
2019-02-14T22:36:30.308Z,1.58
2019-02-14T22:46:30.279Z,1.56
2019-02-14T22:56:30.270Z,1.56
2019-02-14T23:06:31.782Z,1.59
2019-02-14T23:16:30.271Z,1.33
2019-02-14T23:26:30.363Z,1.27
2019-02-14T23:36:30.198Z,1.33
2019-02-14T23:46:30.231Z,1.43
2019-02-14T23:56:34.053Z,1.30
